Time,TemperatureF,DewpointF,PressureIn,WindDirection,WindDirectionDegrees,WindSpeedMPH,WindSpeedGustMPH,Humidity,HourlyPrecipIn,Conditions,Clouds,dailyrainin,SolarRadiationWatts/m^2,SoftwareType,DateUTC
2013-02-01 00:14:00,49.0,30.0,30.21,North,355,0.0,3.0,48,0.00,,,0.00,0,weatherlink.com 1.10,2013-02-01 05:14:00,
2013-02-01 00:29:00,49.2,30.0,30.22,North,355,0.0,7.0,48,0.00,,,0.00,0,weatherlink.com 1.10,2013-02-01 05:29:00,
2013-02-01 00:44:00,49.1,30.0,30.21,NNE,33,3.0,4.0,48,0.00,,,0.00,0,weatherlink.com 1.10,2013-02-01 05:44:00,
2013-02-01 00:59:00,48.8,31.0,30.21,NNE,14,1.0,4.0,50,0.00,,,0.00,0,weatherlink.com 1.10,2013-02-01 05:59:00,
2013-02-01 01:14:00,48.3,31.0,30.21,NNW,333,0.0,4.0,51,0.00,,,0.00,0,weatherlink.com 1.10,2013-02-01 06:14:00,
2013-02-01 01:29:00,48.0,30.0,30.21,North,350,0.0,4.0,51,0.00,,,0.00,0,weatherlink.com 1.10,2013-02-01 06:29:00,
2013-02-01 01:44:00,47.4,30.0,30.21,NNW,345,0.0,2.0,52,0.00,,,0.00,0,weatherlink.com 1.10,2013-02-01 06:44:00,
2013-02-01 01:59:00,46.9,31.0,30.21,North,355,2.0,2.0,54,0.00,,,0.00,0,weatherlink.com 1.10,2013-02-01 06:59:00,
2013-02-01 02:14:00,46.6,31.0,30.22,NW,325,0.0,2.0,55,0.00,,,0.00,0,weatherlink.com 1.10,2013-02-01 07:14:00,
2013-02-01 02:29:00,46.1,31.0,30.22,NNW,345,0.0,3.0,57,0.00,,,0.00,0,weatherlink.com 1.10,2013-02-01 07:29:00,
2013-02-01 02:44:00,45.6,32.0,30.21,NNW,345,0.0,1.0,59,0.00,,,0.00,0,weatherlink.com 1.10,2013-02-01 07:44:00,
2013-02-01 02:59:00,45.0,32.0,30.21,NNW,345,0.0,1.0,61,0.00,,,0.00,0,weatherlink.com 1.10,2013-02-01 07:59:00,
2013-02-01 03:14:00,44.2,32.0,30.22,NNW,345,0.0,0.0,63,0.00,,,0.00,0,weatherlink.com 1.10,2013-02-01 08:14:00,
2013-02-01 03:29:00,44.2,33.0,30.22,NNW,338,0.0,2.0,64,0.00,,,0.00,0,weatherlink.com 1.10,2013-02-01 08:29:00,
2013-02-01 03:44:00,44.3,32.0,30.23,North,355,0.0,4.0,63,0.00,,,0.00,0,weatherlink.com 1.10,2013-02-01 08:44:00,
2013-02-01 03:59:00,44.2,33.0,30.23,NNW,342,0.0,2.0,64,0.00,,,0.00,0,weatherlink.com 1.10,2013-02-01 08:59:00,
2013-02-01 04:14:00,44.0,33.0,30.23,NNW,329,0.0,4.0,65,0.00,,,0.00,0,weatherlink.com 1.10,2013-02-01 09:14:00,
2013-02-01 04:29:00,43.7,33.0,30.24,NNW,338,0.0,2.0,67,0.00,,,0.00,0,weatherlink.com 1.10,2013-02-01 09:29:00,
2013-02-01 04:44:00,43.4,33.0,30.23,NNW,348,0.0,2.0,67,0.00,,,0.00,0,weatherlink.com 1.10,2013-02-01 09:44:00,
2013-02-01 05:00:00,43.0,33.0,30.24,NNW,348,0.0,1.0,68,0.00,,,0.00,0,weatherlink.com 1.10,2013-02-01 10:00:00,
2013-02-01 05:14:00,42.6,33.0,30.24,NNW,338,0.0,2.0,69,0.00,,,0.00,0,weatherlink.com 1.10,2013-02-01 10:14:00,
2013-02-01 05:29:00,42.8,33.0,30.24,NNE,19,0.0,2.0,68,0.00,,,0.00,0,weatherlink.com 1.10,2013-02-01 10:29:00,
2013-02-01 05:44:00,43.0,33.0,30.25,NNW,347,0.0,3.0,67,0.00,,,0.00,0,weatherlink.com 1.10,2013-02-01 10:44:00,
2013-02-01 05:59:00,43.2,33.0,30.25,NNW,331,0.0,2.0,67,0.00,,,0.00,0,weatherlink.com 1.10,2013-02-01 10:59:00,
2013-02-01 06:15:00,42.8,33.0,30.26,North,355,0.0,3.0,68,0.00,,,0.00,0,weatherlink.com 1.10,2013-02-01 11:15:00,
2013-02-01 06:29:00,42.2,32.0,30.27,North,355,0.0,0.0,68,0.00,,,0.00,0,weatherlink.com 1.10,2013-02-01 11:29:00,
2013-02-01 06:44:00,41.3,32.0,30.27,North,355,0.0,0.0,70,0.00,,,0.00,0,weatherlink.com 1.10,2013-02-01 11:44:00,
2013-02-01 07:00:00,40.7,32.0,30.28,North,355,0.0,0.0,72,0.00,,,0.00,0,weatherlink.com 1.10,2013-02-01 12:00:00,
2013-02-01 07:15:00,39.9,32.0,30.28,North,355,0.0,0.0,73,0.00,,,0.00,5,weatherlink.com 1.10,2013-02-01 12:15:00,
2013-02-01 07:30:00,39.4,32.0,30.29,North,355,0.0,0.0,74,0.00,,,0.00,14,weatherlink.com 1.10,2013-02-01 12:30:00,
2013-02-01 07:45:00,39.5,33.0,30.30,North,355,0.0,0.0,76,0.00,,,0.00,21,weatherlink.com 1.10,2013-02-01 12:45:00,
2013-02-01 08:00:00,40.5,33.0,30.30,North,355,0.0,0.0,75,0.00,,,0.00,25,weatherlink.com 1.10,2013-02-01 13:00:00,
2013-02-01 08:15:00,41.4,34.0,30.31,North,355,0.0,0.0,74,0.00,,,0.00,28,weatherlink.com 1.10,2013-02-01 13:15:00,
2013-02-01 08:30:00,43.8,34.0,30.32,North,355,0.0,2.0,69,0.00,,,0.00,156,weatherlink.com 1.10,2013-02-01 13:30:00,
2013-02-01 08:45:00,48.9,34.0,30.33,North,360,0.0,4.0,57,0.00,,,0.00,278,weatherlink.com 1.10,2013-02-01 13:45:00,
2013-02-01 09:00:00,50.9,33.0,30.33,North,355,5.0,11.0,51,0.00,,,0.00,332,weatherlink.com 1.10,2013-02-01 14:00:00,
2013-02-01 09:15:00,52.2,32.0,30.34,NE,49,2.0,11.0,46,0.00,,,0.00,385,weatherlink.com 1.10,2013-02-01 14:15:00,
2013-02-01 09:30:00,53.2,30.0,30.33,North,355,6.0,9.0,42,0.00,,,0.00,434,weatherlink.com 1.10,2013-02-01 14:30:00,
2013-02-01 09:46:00,54.2,31.0,30.34,North,355,2.0,10.0,42,0.00,,,0.00,483,weatherlink.com 1.10,2013-02-01 14:46:00,
2013-02-01 10:01:00,55.4,31.0,30.34,North,360,6.0,9.0,40,0.00,,,0.00,527,weatherlink.com 1.10,2013-02-01 15:01:00,
2013-02-01 10:15:00,56.3,31.0,30.34,North,360,5.0,12.0,38,0.00,,,0.00,568,weatherlink.com 1.10,2013-02-01 15:15:00,
2013-02-01 10:30:00,56.6,31.0,30.34,North,360,4.0,9.0,38,0.00,,,0.00,608,weatherlink.com 1.10,2013-02-01 15:30:00,
2013-02-01 10:45:00,58.4,31.0,30.34,North,5,4.0,7.0,36,0.00,,,0.00,642,weatherlink.com 1.10,2013-02-01 15:45:00,
2013-02-01 11:01:00,58.9,31.0,30.33,NNE,26,2.0,8.0,35,0.00,,,0.00,670,weatherlink.com 1.10,2013-02-01 16:01:00,
2013-02-01 11:16:00,59.7,30.0,30.33,NNE,28,0.0,6.0,33,0.00,,,0.00,701,weatherlink.com 1.10,2013-02-01 16:16:00,
2013-02-01 11:31:00,61.3,30.0,30.33,West,267,1.0,6.0,31,0.00,,,0.00,721,weatherlink.com 1.10,2013-02-01 16:31:00,
2013-02-01 11:46:00,61.8,31.0,30.32,NW,311,4.0,6.0,31,0.00,,,0.00,744,weatherlink.com 1.10,2013-02-01 16:46:00,
2013-02-01 12:01:00,62.0,30.0,30.32,WSW,254,0.0,8.0,30,0.00,,,0.00,759,weatherlink.com 1.10,2013-02-01 17:01:00,
2013-02-01 12:16:00,61.9,29.0,30.31,NW,323,2.0,8.0,29,0.00,,,0.00,770,weatherlink.com 1.10,2013-02-01 17:16:00,
2013-02-01 12:31:00,62.1,28.0,30.30,NNE,24,6.0,8.0,28,0.00,,,0.00,775,weatherlink.com 1.10,2013-02-01 17:31:00,
2013-02-01 12:46:00,64.8,29.0,30.30,NNW,327,1.0,9.0,26,0.00,,,0.00,775,weatherlink.com 1.10,2013-02-01 17:46:00,
2013-02-01 13:01:00,66.1,30.0,30.29,NNE,32,2.0,6.0,26,0.00,,,0.00,779,weatherlink.com 1.10,2013-02-01 18:01:00,
2013-02-01 13:16:00,65.9,32.0,30.28,ENE,60,2.0,9.0,28,0.00,,,0.00,768,weatherlink.com 1.10,2013-02-01 18:16:00,
2013-02-01 13:31:00,65.0,29.0,30.27,NW,313,2.0,5.0,26,0.00,,,0.00,759,weatherlink.com 1.10,2013-02-01 18:31:00,
2013-02-01 13:46:00,66.0,29.0,30.27,SW,225,1.0,8.0,25,0.00,,,0.00,747,weatherlink.com 1.10,2013-02-01 18:46:00,
2013-02-01 14:01:00,66.7,31.0,30.26,WSW,241,0.0,5.0,26,0.00,,,0.00,744,weatherlink.com 1.10,2013-02-01 19:01:00,
2013-02-01 14:16:00,67.3,29.0,30.25,North,360,6.0,7.0,24,0.00,,,0.00,731,weatherlink.com 1.10,2013-02-01 19:16:00,
2013-02-01 14:31:00,67.7,27.0,30.25,WSW,246,3.0,4.0,22,0.00,,,0.00,673,weatherlink.com 1.10,2013-02-01 19:31:00,
2013-02-01 14:46:00,67.9,28.0,30.25,West,279,1.0,6.0,22,0.00,,,0.00,635,weatherlink.com 1.10,2013-02-01 19:46:00,
2013-02-01 15:01:00,68.7,28.0,30.24,WSW,251,1.0,3.0,22,0.00,,,0.00,599,weatherlink.com 1.10,2013-02-01 20:01:00,
2013-02-01 15:16:00,67.7,28.0,30.24,South,184,0.0,7.0,23,0.00,,,0.00,559,weatherlink.com 1.10,2013-02-01 20:16:00,
2013-02-01 15:31:00,68.5,28.0,30.23,WSW,250,0.0,3.0,22,0.00,,,0.00,524,weatherlink.com 1.10,2013-02-01 20:31:00,
2013-02-01 15:47:00,67.5,27.0,30.23,North,9,3.0,6.0,22,0.00,,,0.00,471,weatherlink.com 1.10,2013-02-01 20:47:00,
2013-02-01 16:02:00,68.5,28.0,30.23,WNW,292,1.0,4.0,22,0.00,,,0.00,432,weatherlink.com 1.10,2013-02-01 21:02:00,
2013-02-01 16:16:00,68.2,29.0,30.23,WSW,240,3.0,4.0,23,0.00,,,0.00,373,weatherlink.com 1.10,2013-02-01 21:16:00,
2013-02-01 16:31:00,68.6,29.0,30.24,WNW,288,1.0,4.0,23,0.00,,,0.00,345,weatherlink.com 1.10,2013-02-01 21:31:00,
2013-02-01 16:46:00,67.7,28.0,30.24,WSW,237,3.0,6.0,23,0.00,,,0.00,163,weatherlink.com 1.10,2013-02-01 21:46:00,
2013-02-01 17:01:00,67.6,29.0,30.23,NE,40,0.0,3.0,24,0.00,,,0.00,102,weatherlink.com 1.10,2013-02-01 22:01:00,
2013-02-01 17:31:00,66.1,32.0,30.24,SW,234,0.0,4.0,28,0.00,,,0.00,54,weatherlink.com 1.10,2013-02-01 22:31:00,
2013-02-01 17:47:00,65.9,32.0,30.24,West,281,0.0,2.0,28,0.00,,,0.00,25,weatherlink.com 1.10,2013-02-01 22:47:00,
2013-02-01 18:01:00,64.9,33.0,30.24,West,281,0.0,1.0,30,0.00,,,0.00,7,weatherlink.com 1.10,2013-02-01 23:01:00,
2013-02-01 18:17:00,63.8,33.0,30.24,West,281,0.0,1.0,32,0.00,,,0.00,0,weatherlink.com 1.10,2013-02-01 23:17:00,
2013-02-01 18:31:00,62.2,34.0,30.24,West,281,0.0,0.0,35,0.00,,,0.00,0,weatherlink.com 1.10,2013-02-01 23:31:00,
2013-02-01 18:46:00,60.9,35.0,30.24,West,281,0.0,0.0,38,0.00,,,0.00,0,weatherlink.com 1.10,2013-02-01 23:46:00,
2013-02-01 19:02:00,59.7,37.0,30.24,West,281,0.0,0.0,43,0.00,,,0.00,0,weatherlink.com 1.10,2013-02-02 00:02:00,
2013-02-01 19:17:00,58.8,37.0,30.23,West,281,0.0,0.0,45,0.00,,,0.00,0,weatherlink.com 1.10,2013-02-02 00:17:00,
2013-02-01 19:32:00,57.6,38.0,30.24,West,281,0.0,0.0,48,0.00,,,0.00,0,weatherlink.com 1.10,2013-02-02 00:32:00,
2013-02-01 19:46:00,56.7,38.0,30.24,West,281,0.0,0.0,49,0.00,,,0.00,0,weatherlink.com 1.10,2013-02-02 00:46:00,
2013-02-01 20:01:00,56.0,38.0,30.24,West,281,0.0,0.0,52,0.00,,,0.00,0,weatherlink.com 1.10,2013-02-02 01:01:00,
2013-02-01 20:16:00,55.3,37.0,30.25,West,281,0.0,0.0,51,0.00,,,0.00,0,weatherlink.com 1.10,2013-02-02 01:16:00,
2013-02-01 20:32:00,54.7,37.0,30.26,West,281,0.0,0.0,51,0.00,,,0.00,0,weatherlink.com 1.10,2013-02-02 01:32:00,
2013-02-01 20:46:00,53.9,34.0,30.25,West,281,0.0,0.0,48,0.00,,,0.00,0,weatherlink.com 1.10,2013-02-02 01:46:00,
2013-02-01 21:02:00,53.3,33.0,30.25,West,281,0.0,0.0,46,0.00,,,0.00,0,weatherlink.com 1.10,2013-02-02 02:02:00,
2013-02-01 21:17:00,52.7,33.0,30.26,West,281,0.0,0.0,48,0.00,,,0.00,0,weatherlink.com 1.10,2013-02-02 02:17:00,
2013-02-01 21:31:00,52.0,33.0,30.26,West,281,0.0,0.0,49,0.00,,,0.00,0,weatherlink.com 1.10,2013-02-02 02:31:00,
2013-02-01 21:49:00,51.9,37.0,30.27,West,281,0.0,1.0,57,0.00,,,0.00,0,weatherlink.com 1.10,2013-02-02 02:49:00,
2013-02-01 22:01:00,53.4,36.0,30.27,NNW,327,0.0,1.0,52,0.00,,,0.00,0,weatherlink.com 1.10,2013-02-02 03:01:00,
2013-02-01 22:17:00,54.0,36.0,30.28,NNW,341,0.0,2.0,50,0.00,,,0.00,0,weatherlink.com 1.10,2013-02-02 03:17:00,
2013-02-01 22:31:00,53.6,35.0,30.28,NNW,341,0.0,1.0,50,0.00,,,0.00,0,weatherlink.com 1.10,2013-02-02 03:31:00,
2013-02-01 22:46:00,52.7,35.0,30.28,NNW,341,0.0,1.0,51,0.00,,,0.00,0,weatherlink.com 1.10,2013-02-02 03:46:00,
2013-02-01 23:01:00,52.2,35.0,30.28,NNW,341,0.0,1.0,52,0.00,,,0.00,0,weatherlink.com 1.10,2013-02-02 04:01:00,
2013-02-01 23:16:00,51.9,35.0,30.27,NNW,338,0.0,2.0,53,0.00,,,0.00,0,weatherlink.com 1.10,2013-02-02 04:16:00,
2013-02-01 23:31:00,51.3,35.0,30.27,NNW,338,0.0,0.0,55,0.00,,,0.00,0,weatherlink.com 1.10,2013-02-02 04:31:00,
2013-02-01 23:47:00,50.5,36.0,30.27,NNW,339,0.0,2.0,57,0.00,,,0.00,0,weatherlink.com 1.10,2013-02-02 04:47:00,